Terminal Aerodrome Forecast
Issued by NWS

Home | Current Version | Previous Version | Text Only | Print | Product List | Glossary On
Versions: 1 2 3 4 5 6 7 8 9 10 11 12 13 14 15 16 17 18 19
781
FTUS46 KSEW 251421 AAA
TAFPAE
TAF AMD
KPAE 251421Z 2514/2612 VRB03KT P6SM SCT120
     FM251800 33006KT P6SM SCT120
     FM260300 VRB03KT P6SM SKC=

USA.gov is the U.S. government's official web portal to all federal, state and local government web resources and services.